Superrunner — SVAF2 — position and weather

sailwx.info

Track history (hours):
 
Tides and Currents Weather Stations Pressure Air Temp Water Temp Dewpoint Dewpoint Depression Visibility Wind Speed Wind Dir Waves Ship Positions

Superrunner

Last reported at 2018-Jul-21 18:37 UTC. Time now 2018-Jul-21 19:17 UTC.
Position N 38°01' E 024°02'.

Length 100 m; draft 2.5 m.

Type: Ship. MMSI: 240931000.

Date/timePositionNaut miles runAvg speedWind from/ knotsBaromVisibWave heightAir tempDewpointWater temp
2018-Jul-21 18:37N 38°01' E 024°02'219.3
2018-Jul-21 18:31N 38°00' E 024°04'3928.7
2018-Jul-21 17:08N 37°41' E 024°48'429.2
2018-Jul-21 17:01N 37°39' E 024°52'1529.2
2018-Jul-21 16:30N 37°32' E 025°08'816.4
2018-Jul-21 16:00N 37°28' E 025°17'611.3
2018-Jul-21 15:31N 37°23' E 025°17'1629.2
2018-Jul-21 14:58N 37°09' E 025°09'2 4.1
2018-Jul-21 14:31N 37°07' E 025°08'10 9.7
2018-Jul-21 13:31N 37°01' E 025°18'1 0.4
2018-Jul-21 09:45N 36°59' E 025°18'728.5
2018-Jul-21 09:30N 37°06' E 025°20'4 8.4
2018-Jul-21 09:01N 37°10' E 025°18'814.0
2018-Jul-21 08:24N 37°05' E 025°09'821.1
2018-Jul-21 08:01N 37°13' E 025°11'1429.0
2018-Jul-21 07:30N 37°27' E 025°18'5 9.7
2018-Jul-21 07:01N 37°30' E 025°13'815.1
2018-Jul-21 06:30N 37°33' E 025°04'1427.8
2018-Jul-21 06:00N 37°40' E 024°49'3028.0
2018-Jul-21 04:56N 37°55' E 024°16'1227.6
2018-Jul-21 04:31N 38°00' E 024°03'2 0.2
2018-Jul-20 18:48N 38°01' E 024°01'4227.3
2018-Jul-20 17:15N 37°41' E 024°48'729.2
2018-Jul-20 17:00N 37°38' E 024°56'1224.5
2018-Jul-20 16:30N 37°32' E 025°09'714.7
2018-Jul-20 16:01N 37°28' E 025°17'5 9.6
2018-Jul-20 15:31N 37°24' E 025°17'1529.3
2018-Jul-20 15:00N 37°10' E 025°09'4 8.1
2018-Jul-20 14:30N 37°06' E 025°08'1223.2
2018-Jul-20 14:00N 37°06' E 025°22'815.5
2018-Jul-20 13:30N 36°60' E 025°17'0 0.1
2018-Jul-20 09:48N 36°59' E 025°17'826.8
2018-Jul-20 09:30N 37°06' E 025°22'612.2
2018-Jul-20 09:01N 37°10' E 025°16'6515.9
2018-Jul-20 04:54N 37°55' E 024°16'1127.8
2018-Jul-20 04:31N 38°00' E 024°04'3 0.3
2018-Jul-19 18:32N 38°01' E 024°01'110.9
2018-Jul-19 18:26N 38°01' E 024°02'4129.1
2018-Jul-19 17:01N 37°41' E 024°48'030.6
2018-Jul-19 17:01N 37°41' E 024°48'1530.0
2018-Jul-19 16:31N 37°34' E 025°05'815.6
2018-Jul-19 16:00N 37°30' E 025°13'4 8.7
2018-Jul-19 15:30N 37°27' E 025°18'1529.2
2018-Jul-19 15:01N 37°14' E 025°12'916.9
2018-Jul-19 14:30N 37°05' E 025°09'8 7.9
2018-Jul-19 13:31N 37°02' E 025°18'3 0.8
2018-Jul-19 09:43N 36°59' E 025°17'629.2
2018-Jul-19 09:30N 37°05' E 025°19'5 9.7
2018-Jul-19 09:01N 37°10' E 025°18'914.8
2018-Jul-19 08:26N 37°05' E 025°09'920.5
2018-Jul-19 08:00N 37°14' E 025°12'1428.9
2018-Jul-19 07:30N 37°27' E 025°18'4 8.1
2018-Jul-19 07:01N 37°30' E 025°14'815.7
2018-Jul-19 06:31N 37°33' E 025°05'1427.9
2018-Jul-19 06:00N 37°40' E 024°49'3027.8
2018-Jul-19 04:54N 37°55' E 024°16'1127.5
2018-Jul-19 04:30N 38°00' E 024°04'3 0.3
2018-Jul-18 18:49N 38°01' E 024°01'4227.4
2018-Jul-18 17:17N 37°41' E 024°48'829.0
2018-Jul-18 17:00N 37°37' E 024°57'1122.9
2018-Jul-18 16:30N 37°32' E 025°09'918.3
2018-Jul-18 16:01N 37°28' E 025°19'816.3
2018-Jul-18 15:31N 37°20' E 025°16'1529.5
2018-Jul-18 15:01N 37°07' E 025°08'4 6.7
2018-Jul-18 14:27N 37°09' E 025°12'11 1.6
2018-Jul-18 07:42N 37°19' E 025°15'629.8
2018-Jul-18 07:30N 37°25' E 025°17'4 8.2
2018-Jul-18 07:00N 37°29' E 025°16'917.7
2018-Jul-18 06:30N 37°33' E 025°06'1428.7
2018-Jul-18 06:01N 37°40' E 024°51'3128.2
2018-Jul-18 04:54N 37°55' E 024°16'1127.3
2018-Jul-18 04:30N 37°60' E 024°04'58 5.5
2018-Jul-17 17:59N 37°32' E 025°08'1014.3
2018-Jul-17 17:17N 37°28' E 025°19'2416.2
2018-Jul-17 15:48N 37°06' E 025°08'922.8
2018-Jul-17 15:24N 37°10' E 025°17'513.7
2018-Jul-17 15:01N 37°06' E 025°22'24 6.0
2018-Jul-17 10:57N 36°43' E 025°15'2420.1
2018-Jul-17 09:44N 37°06' E 025°22'2 9.8
2018-Jul-17 09:31N 37°08' E 025°20'2010.1
2018-Jul-17 07:32N 37°28' E 025°19'0 0.3
2018-Jul-17 07:30N 37°28' E 025°19'918.0
2018-Jul-17 07:00N 37°32' E 025°09'1218.1
2018-Jul-17 06:21N 37°37' E 024°56'49 4.3
2018-Jul-16 19:01N 38°01' E 024°02'011.9
2018-Jul-16 19:00N 38°01' E 024°02'5524.2
2018-Jul-16 16:44N 37°34' E 025°03'625.2
2018-Jul-16 16:30N 37°32' E 025°09'510.4
2018-Jul-16 16:00N 37°29' E 025°15'3 6.3
2018-Jul-16 15:30N 37°28' E 025°18'1529.5
2018-Jul-16 15:00N 37°14' E 025°12'811.5
2018-Jul-16 14:20N 37°07' E 025°08'927.5
2018-Jul-16 14:01N 37°09' E 025°19'510.0
2018-Jul-16 13:30N 37°04' E 025°19'5 1.3
2018-Jul-16 09:36N 36°59' E 025°18'330.3
2018-Jul-16 09:30N 37°02' E 025°18'611.9
2018-Jul-16 09:01N 37°07' E 025°21'1113.2
2018-Jul-16 08:11N 37°07' E 025°08'529.9
2018-Jul-16 08:00N 37°12' E 025°10'1530.1
2018-Jul-16 07:31N 37°26' E 025°17'5 9.0
2018-Jul-16 07:00N 37°30' E 025°15'815.1
2018-Jul-16 06:30N 37°33' E 025°06'1428.2
2018-Jul-16 06:00N 37°39' E 024°50'3228.3
2018-Jul-16 04:53N 37°55' E 024°16'1128.2
2018-Jul-16 04:30N 38°00' E 024°04'3 0.3
2018-Jul-15 19:08N 38°01' E 024°01'1 9.7
2018-Jul-15 19:01N 38°01' E 024°02'4127.7
2018-Jul-15 17:31N 37°41' E 024°48'428.6
2018-Jul-15 17:24N 37°40' E 024°52'1128.1
2018-Jul-15 16:59N 37°34' E 025°05'4 8.5
2018-Jul-15 16:30N 37°32' E 025°09'918.0
2018-Jul-15 16:00N 37°28' E 025°20'1020.5
2018-Jul-15 15:30N 37°19' E 025°15'1415.7
2018-Jul-15 14:38N 37°06' E 025°08'529.9
2018-Jul-15 14:27N 37°09' E 025°13'818.2
2018-Jul-15 14:01N 37°06' E 025°22'8 1.8
2018-Jul-15 09:36N 36°59' E 025°17'330.4
2018-Jul-15 09:30N 37°02' E 025°18'612.6
2018-Jul-15 09:01N 37°08' E 025°20'1010.5
2018-Jul-15 08:04N 37°07' E 025°08'230.1
2018-Jul-15 08:00N 37°09' E 025°09'1530.4
2018-Jul-15 07:31N 37°22' E 025°17'713.1
2018-Jul-15 07:01N 37°28' E 025°18'816.4
2018-Jul-15 06:30N 37°32' E 025°09'1428.9
2018-Jul-15 06:00N 37°38' E 024°52'3328.9
2018-Jul-15 04:53N 37°55' E 024°16'1129.0
2018-Jul-15 04:30N 37°60' E 024°04'3 0.3
2018-Jul-14 19:00N 38°01' E 024°01'4327.8
2018-Jul-14 17:27N 37°41' E 024°49'1429.2
2018-Jul-14 16:58N 37°34' E 025°04'715.5
2018-Jul-14 16:30N 37°31' E 025°12'611.1
2018-Jul-14 16:01N 37°28' E 025°18'1427.7
2018-Jul-14 15:31N 37°14' E 025°13'913.0
2018-Jul-14 14:49N 37°06' E 025°08'827.2
2018-Jul-14 14:31N 37°11' E 025°17'11 2.4
2018-Jul-14 09:45N 36°59' E 025°18'729.1
2018-Jul-14 09:31N 37°06' E 025°20'3 5.6
2018-Jul-14 09:00N 37°09' E 025°19'913.7
2018-Jul-14 08:20N 37°05' E 025°08'824.8
2018-Jul-14 08:00N 37°13' E 025°11'1529.7
2018-Jul-14 07:31N 37°27' E 025°18'4 8.3
2018-Jul-14 07:00N 37°30' E 025°14'613.1
2018-Jul-14 06:31N 37°32' E 025°06'1428.5
2018-Jul-14 06:01N 37°39' E 024°50'3228.6
2018-Jul-14 04:54N 37°55' E 024°15'1128.2
2018-Jul-14 04:31N 38°00' E 024°03'2 0.3
2018-Jul-13 19:46N 38°01' E 024°01'4228.1
2018-Jul-13 18:16N 37°41' E 024°48'1229.7
2018-Jul-13 17:52N 37°35' E 025°01'720.8
2018-Jul-13 17:31N 37°32' E 025°09'918.3
2018-Jul-13 17:00N 37°28' E 025°20'1122.5
2018-Jul-13 16:30N 37°17' E 025°15'1315.8
2018-Jul-13 15:43N 37°06' E 025°07'629.7
2018-Jul-13 15:30N 37°10' E 025°14'715.1
2018-Jul-13 15:01N 37°06' E 025°22'8 1.7
2018-Jul-13 10:26N 36°59' E 025°17'819.4
2018-Jul-13 10:01N 37°06' E 025°22'2 3.3
2018-Jul-13 09:30N 37°07' E 025°21'1011.2
2018-Jul-13 08:37N 37°05' E 025°09'212.0
2018-Jul-13 08:27N 37°07' E 025°08'1329.6
2018-Jul-13 08:01N 37°19' E 025°15'1019.4
2018-Jul-13 07:30N 37°28' E 025°20'918.2
2018-Jul-13 07:00N 37°32' E 025°09'814.7
2018-Jul-13 06:28N 37°35' E 025°00'4027.5
2018-Jul-13 05:01N 37°55' E 024°16'031.4
2018-Jul-13 05:00N 37°55' E 024°16'14 1.3
2018-Jul-12 18:54N 38°01' E 024°01'4328.5
2018-Jul-12 17:23N 37°41' E 024°49'1329.4
2018-Jul-12 16:57N 37°34' E 025°03'716.8
2018-Jul-12 16:30N 37°31' E 025°11'714.1
2018-Jul-12 16:01N 37°28' E 025°19'1325.9
2018-Jul-12 15:30N 37°16' E 025°13'1117.0
2018-Jul-12 14:51N 37°05' E 025°08'822.9
2018-Jul-12 14:31N 37°11' E 025°15'613.0
2018-Jul-12 14:01N 37°07' E 025°22'8 1.9
2018-Jul-12 09:44N 36°59' E 025°17'629.0
2018-Jul-12 09:31N 37°05' E 025°20'4 7.5
2018-Jul-12 09:01N 37°09' E 025°19'913.1
2018-Jul-12 08:17N 37°05' E 025°08'723.0
2018-Jul-12 08:00N 37°12' E 025°10'1429.5
2018-Jul-12 07:30N 37°25' E 025°17'4 7.4
2018-Jul-12 07:01N 37°29' E 025°17'816.6
2018-Jul-12 06:30N 37°32' E 025°08'1528.5
2018-Jul-12 05:59N 37°39' E 024°51'3228.6
2018-Jul-12 04:52N 37°55' E 024°15'1028.4
2018-Jul-12 04:30N 37°60' E 024°04'3 0.3
2018-Jul-11 18:42N 38°01' E 024°01'  
Track history (hours):
 
Tides and Currents Weather Stations Pressure Air Temp Water Temp Dewpoint Dewpoint Depression Visibility Wind Speed Wind Dir Waves Ship Positions

Superrunner

Last reported at 2018-Jul-21 18:37 UTC. Time now 2018-Jul-21 19:17 UTC.
Position N 38°01' E 024°02'.

Length 100 m; draft 2.5 m.

Type: Ship. MMSI: 240931000.

Date/timePositionNaut miles runAvg speedWind from/ knotsBaromVisibWave heightAir tempDewpointWater temp
2018-Jul-21 18:37N 38°01' E 024°02'219.3
2018-Jul-21 18:31N 38°00' E 024°04'3928.7
2018-Jul-21 17:08N 37°41' E 024°48'429.2
2018-Jul-21 17:01N 37°39' E 024°52'1529.2
2018-Jul-21 16:30N 37°32' E 025°08'816.4
2018-Jul-21 16:00N 37°28' E 025°17'611.3
2018-Jul-21 15:31N 37°23' E 025°17'1629.2
2018-Jul-21 14:58N 37°09' E 025°09'2 4.1
2018-Jul-21 14:31N 37°07' E 025°08'10 9.7
2018-Jul-21 13:31N 37°01' E 025°18'1 0.4
2018-Jul-21 09:45N 36°59' E 025°18'728.5
2018-Jul-21 09:30N 37°06' E 025°20'4 8.4
2018-Jul-21 09:01N 37°10' E 025°18'814.0
2018-Jul-21 08:24N 37°05' E 025°09'821.1
2018-Jul-21 08:01N 37°13' E 025°11'1429.0
2018-Jul-21 07:30N 37°27' E 025°18'5 9.7
2018-Jul-21 07:01N 37°30' E 025°13'815.1
2018-Jul-21 06:30N 37°33' E 025°04'1427.8
2018-Jul-21 06:00N 37°40' E 024°49'3028.0
2018-Jul-21 04:56N 37°55' E 024°16'1227.6
2018-Jul-21 04:31N 38°00' E 024°03'2 0.2
2018-Jul-20 18:48N 38°01' E 024°01'4227.3
2018-Jul-20 17:15N 37°41' E 024°48'729.2
2018-Jul-20 17:00N 37°38' E 024°56'1224.5
2018-Jul-20 16:30N 37°32' E 025°09'714.7
2018-Jul-20 16:01N 37°28' E 025°17'5 9.6
2018-Jul-20 15:31N 37°24' E 025°17'1529.3
2018-Jul-20 15:00N 37°10' E 025°09'4 8.1
2018-Jul-20 14:30N 37°06' E 025°08'1223.2
2018-Jul-20 14:00N 37°06' E 025°22'815.5
2018-Jul-20 13:30N 36°60' E 025°17'0 0.1
2018-Jul-20 09:48N 36°59' E 025°17'826.8
2018-Jul-20 09:30N 37°06' E 025°22'612.2
2018-Jul-20 09:01N 37°10' E 025°16'6515.9
2018-Jul-20 04:54N 37°55' E 024°16'1127.8
2018-Jul-20 04:31N 38°00' E 024°04'3 0.3
2018-Jul-19 18:32N 38°01' E 024°01'110.9
2018-Jul-19 18:26N 38°01' E 024°02'4129.1
2018-Jul-19 17:01N 37°41' E 024°48'030.6
2018-Jul-19 17:01N 37°41' E 024°48'1530.0
2018-Jul-19 16:31N 37°34' E 025°05'815.6
2018-Jul-19 16:00N 37°30' E 025°13'4 8.7
2018-Jul-19 15:30N 37°27' E 025°18'1529.2
2018-Jul-19 15:01N 37°14' E 025°12'916.9
2018-Jul-19 14:30N 37°05' E 025°09'8 7.9
2018-Jul-19 13:31N 37°02' E 025°18'3 0.8
2018-Jul-19 09:43N 36°59' E 025°17'629.2
2018-Jul-19 09:30N 37°05' E 025°19'5 9.7
2018-Jul-19 09:01N 37°10' E 025°18'914.8
2018-Jul-19 08:26N 37°05' E 025°09'920.5
2018-Jul-19 08:00N 37°14' E 025°12'1428.9
2018-Jul-19 07:30N 37°27' E 025°18'4 8.1
2018-Jul-19 07:01N 37°30' E 025°14'815.7
2018-Jul-19 06:31N 37°33' E 025°05'1427.9
2018-Jul-19 06:00N 37°40' E 024°49'3027.8
2018-Jul-19 04:54N 37°55' E 024°16'1127.5
2018-Jul-19 04:30N 38°00' E 024°04'3 0.3
2018-Jul-18 18:49N 38°01' E 024°01'4227.4
2018-Jul-18 17:17N 37°41' E 024°48'829.0
2018-Jul-18 17:00N 37°37' E 024°57'1122.9
2018-Jul-18 16:30N 37°32' E 025°09'918.3
2018-Jul-18 16:01N 37°28' E 025°19'816.3
2018-Jul-18 15:31N 37°20' E 025°16'1529.5
2018-Jul-18 15:01N 37°07' E 025°08'4 6.7
2018-Jul-18 14:27N 37°09' E 025°12'11 1.6
2018-Jul-18 07:42N 37°19' E 025°15'629.8
2018-Jul-18 07:30N 37°25' E 025°17'4 8.2
2018-Jul-18 07:00N 37°29' E 025°16'917.7
2018-Jul-18 06:30N 37°33' E 025°06'1428.7
2018-Jul-18 06:01N 37°40' E 024°51'3128.2
2018-Jul-18 04:54N 37°55' E 024°16'1127.3
2018-Jul-18 04:30N 37°60' E 024°04'58 5.5
2018-Jul-17 17:59N 37°32' E 025°08'1014.3
2018-Jul-17 17:17N 37°28' E 025°19'2416.2
2018-Jul-17 15:48N 37°06' E 025°08'922.8
2018-Jul-17 15:24N 37°10' E 025°17'513.7
2018-Jul-17 15:01N 37°06' E 025°22'24 6.0
2018-Jul-17 10:57N 36°43' E 025°15'2420.1
2018-Jul-17 09:44N 37°06' E 025°22'2 9.8
2018-Jul-17 09:31N 37°08' E 025°20'2010.1
2018-Jul-17 07:32N 37°28' E 025°19'0 0.3
2018-Jul-17 07:30N 37°28' E 025°19'918.0
2018-Jul-17 07:00N 37°32' E 025°09'1218.1
2018-Jul-17 06:21N 37°37' E 024°56'49 4.3
2018-Jul-16 19:01N 38°01' E 024°02'011.9
2018-Jul-16 19:00N 38°01' E 024°02'5524.2
2018-Jul-16 16:44N 37°34' E 025°03'625.2
2018-Jul-16 16:30N 37°32' E 025°09'510.4
2018-Jul-16 16:00N 37°29' E 025°15'3 6.3
2018-Jul-16 15:30N 37°28' E 025°18'1529.5
2018-Jul-16 15:00N 37°14' E 025°12'811.5
2018-Jul-16 14:20N 37°07' E 025°08'927.5
2018-Jul-16 14:01N 37°09' E 025°19'510.0
2018-Jul-16 13:30N 37°04' E 025°19'5 1.3
2018-Jul-16 09:36N 36°59' E 025°18'330.3
2018-Jul-16 09:30N 37°02' E 025°18'611.9
2018-Jul-16 09:01N 37°07' E 025°21'1113.2
2018-Jul-16 08:11N 37°07' E 025°08'529.9
2018-Jul-16 08:00N 37°12' E 025°10'1530.1
2018-Jul-16 07:31N 37°26' E 025°17'5 9.0
2018-Jul-16 07:00N 37°30' E 025°15'815.1
2018-Jul-16 06:30N 37°33' E 025°06'1428.2
2018-Jul-16 06:00N 37°39' E 024°50'3228.3
2018-Jul-16 04:53N 37°55' E 024°16'1128.2
2018-Jul-16 04:30N 38°00' E 024°04'3 0.3
2018-Jul-15 19:08N 38°01' E 024°01'1 9.7
2018-Jul-15 19:01N 38°01' E 024°02'4127.7
2018-Jul-15 17:31N 37°41' E 024°48'428.6
2018-Jul-15 17:24N 37°40' E 024°52'1128.1
2018-Jul-15 16:59N 37°34' E 025°05'4 8.5
2018-Jul-15 16:30N 37°32' E 025°09'918.0
2018-Jul-15 16:00N 37°28' E 025°20'1020.5
2018-Jul-15 15:30N 37°19' E 025°15'1415.7
2018-Jul-15 14:38N 37°06' E 025°08'529.9
2018-Jul-15 14:27N 37°09' E 025°13'818.2
2018-Jul-15 14:01N 37°06' E 025°22'8 1.8
2018-Jul-15 09:36N 36°59' E 025°17'330.4
2018-Jul-15 09:30N 37°02' E 025°18'612.6
2018-Jul-15 09:01N 37°08' E 025°20'1010.5
2018-Jul-15 08:04N 37°07' E 025°08'230.1
2018-Jul-15 08:00N 37°09' E 025°09'1530.4
2018-Jul-15 07:31N 37°22' E 025°17'713.1
2018-Jul-15 07:01N 37°28' E 025°18'816.4
2018-Jul-15 06:30N 37°32' E 025°09'1428.9
2018-Jul-15 06:00N 37°38' E 024°52'3328.9
2018-Jul-15 04:53N 37°55' E 024°16'1129.0
2018-Jul-15 04:30N 37°60' E 024°04'3 0.3
2018-Jul-14 19:00N 38°01' E 024°01'4327.8
2018-Jul-14 17:27N 37°41' E 024°49'1429.2
2018-Jul-14 16:58N 37°34' E 025°04'715.5
2018-Jul-14 16:30N 37°31' E 025°12'611.1
2018-Jul-14 16:01N 37°28' E 025°18'1427.7
2018-Jul-14 15:31N 37°14' E 025°13'913.0
2018-Jul-14 14:49N 37°06' E 025°08'827.2
2018-Jul-14 14:31N 37°11' E 025°17'11 2.4
2018-Jul-14 09:45N 36°59' E 025°18'729.1
2018-Jul-14 09:31N 37°06' E 025°20'3 5.6
2018-Jul-14 09:00N 37°09' E 025°19'913.7
2018-Jul-14 08:20N 37°05' E 025°08'824.8
2018-Jul-14 08:00N 37°13' E 025°11'1529.7
2018-Jul-14 07:31N 37°27' E 025°18'4 8.3
2018-Jul-14 07:00N 37°30' E 025°14'613.1
2018-Jul-14 06:31N 37°32' E 025°06'1428.5
2018-Jul-14 06:01N 37°39' E 024°50'3228.6
2018-Jul-14 04:54N 37°55' E 024°15'1128.2
2018-Jul-14 04:31N 38°00' E 024°03'2 0.3
2018-Jul-13 19:46N 38°01' E 024°01'4228.1
2018-Jul-13 18:16N 37°41' E 024°48'1229.7
2018-Jul-13 17:52N 37°35' E 025°01'720.8
2018-Jul-13 17:31N 37°32' E 025°09'918.3
2018-Jul-13 17:00N 37°28' E 025°20'1122.5
2018-Jul-13 16:30N 37°17' E 025°15'1315.8
2018-Jul-13 15:43N 37°06' E 025°07'629.7
2018-Jul-13 15:30N 37°10' E 025°14'715.1
2018-Jul-13 15:01N 37°06' E 025°22'8 1.7
2018-Jul-13 10:26N 36°59' E 025°17'819.4
2018-Jul-13 10:01N 37°06' E 025°22'2 3.3
2018-Jul-13 09:30N 37°07' E 025°21'1011.2
2018-Jul-13 08:37N 37°05' E 025°09'212.0
2018-Jul-13 08:27N 37°07' E 025°08'1329.6
2018-Jul-13 08:01N 37°19' E 025°15'1019.4
2018-Jul-13 07:30N 37°28' E 025°20'918.2
2018-Jul-13 07:00N 37°32' E 025°09'814.7
2018-Jul-13 06:28N 37°35' E 025°00'4027.5
2018-Jul-13 05:01N 37°55' E 024°16'031.4
2018-Jul-13 05:00N 37°55' E 024°16'14 1.3
2018-Jul-12 18:54N 38°01' E 024°01'4328.5
2018-Jul-12 17:23N 37°41' E 024°49'1329.4
2018-Jul-12 16:57N 37°34' E 025°03'716.8
2018-Jul-12 16:30N 37°31' E 025°11'714.1
2018-Jul-12 16:01N 37°28' E 025°19'1325.9
2018-Jul-12 15:30N 37°16' E 025°13'1117.0
2018-Jul-12 14:51N 37°05' E 025°08'822.9
2018-Jul-12 14:31N 37°11' E 025°15'613.0
2018-Jul-12 14:01N 37°07' E 025°22'8 1.9
2018-Jul-12 09:44N 36°59' E 025°17'629.0
2018-Jul-12 09:31N 37°05' E 025°20'4 7.5
2018-Jul-12 09:01N 37°09' E 025°19'913.1
2018-Jul-12 08:17N 37°05' E 025°08'723.0
2018-Jul-12 08:00N 37°12' E 025°10'1429.5
2018-Jul-12 07:30N 37°25' E 025°17'4 7.4
2018-Jul-12 07:01N 37°29' E 025°17'816.6
2018-Jul-12 06:30N 37°32' E 025°08'1528.5
2018-Jul-12 05:59N 37°39' E 024°51'3228.6
2018-Jul-12 04:52N 37°55' E 024°15'1028.4
2018-Jul-12 04:30N 37°60' E 024°04'3 0.3
2018-Jul-11 18:42N 38°01' E 024°01'  

Dump ship's entire track history